Řízení letového provozu České republiky
Letiste: LKPD Aktualizace: 17.02.2019 01:00:06  UTC
 METAR LKPD 17.02. 01:00 ...
METAR LKPD 170100Z VRB01KT 4000 BR NSC M02/M03 Q1027 RMK GRN=
 TAF LKPD 16.02. 23:00 ...
TAF LKPD 162300Z 1700/1800 10002KT 2000 BR NSC      TEMPO 1700/1709 0500 FZFG VV001      BECMG 1709/1711 CAVOK=